Val Joly (forêt de Trélon) (59) - Violet court

Date : 09/03/2019

Place Nom Licence Catégorie Club Temps CN à J-60 Points Différence Nouveau CN
1 ROGER Aymeric 14681 H21 7807IF 0:28:41 7476 5960 -1516 7476
2 FARDEL Florent 19387 H21 5907HF 0:29:37 5772 5556
3 SEGUINOT Albert 994 H60 0801GE 0:34:32 5060 4950 -110 5075
4 CLABAUX Sylvain 36262 H35 6208HF 0:37:15 3708 4589 +881 4100
5 TAILLANDIER Guy 1583 H70 0801GE 0:39:35 5336 4319 -1017 5336
6 JANQUIN Philippe 27608 H50 6203HF 0:39:51 4492 4290 -202 4540
7 VAYSSAT Mathieu 24392 H16 6008HF 0:42:18 3638 4041 +403 4036
8 BOUTIN Dominique 13838 H55 6205HF 0:42:19 4210 4040 -170 4118
9 OLIVIER Romane 32070 D18 5116GE 0:43:02 3754 3973 +219 3839
10 RENNOTTE Georges 29874 H75 5703GE 0:48:34 3752 3520 -232 3834
11 LAMINETTE Francois 17202 H55 5907HF 0:48:41 3298 3512 +214 3597
12 ROUX Catherine 13270 D50 6205HF 0:50:05 4226 3413 -813 4141
13 EJSMONT Jean 5597 H70 6203HF 0:54:58 0 3110 3021
14 ROBERT Chloé 34021 D18 5116GE 1:00:30 3383 2826 -557 3423
15 ROSE Jean-Bernard 6740 H65 0801GE 1:04:45 3564 2640 -924 3564
16 RICHARD Nicole 14245 D70 0207HF 1:07:57 3349 2516 -833 3264
17 PECQUEUR Sylvie 20425 D55 5906HF 1:10:27 2613 2427 -186 2673
18 GLASSET Isabelle 17536 D55 7807IF 1:21:21 2685 2101 -584 2654
19 MOULIERE M-Bernadette 2888 D75 0207HF 1:26:28 2948 1977 -971 2948
20 BEN KHALED Isabelle 13761 D60 5906HF 1:26:29 2412 1977 -435 2350
21 PETEL Corinne 31948 D40 0207HF 1:33:13 2231 1834 -397 2470
22 LUDEWIG-JAMES Carol 15894 D80 5907HF 2:24:16 1636 1185 -451 1636